Time;durP1;ratioP1;P1;durP2;ratioP2;P2;SDS_P1;SDS_P2;PMS_P1;PMS_P2;Temp;Humidity;BMP_temperature;BMP_pressure;BME280_temperature;BME280_humidity;BME280_pressure;Samples;Min_cycle;Max_cycle;Signal;HPM_P1;HPM_P2
2022/07/04 00:01:16;;;;;;;5.00;2.20;;;15.50;39.30;;;;;;2614418;54;20663;-74
2022/07/04 00:07:04;;;;;;;14.63;2.30;;;15.40;43.30;;;;;;2614827;54;20132;-75
2022/07/04 00:12:51;;;;;;;2.70;2.50;;;15.40;46.40;;;;;;2615635;54;20389;-74
2022/07/04 00:18:39;;;;;;;4.03;2.10;;;15.40;56.10;;;;;;2615626;39;20533;-73
2022/07/04 00:24:27;;;;;;;2.20;2.00;;;15.20;61.30;;;;;;2614764;54;20415;-73
2022/07/04 00:30:15;;;;;;;3.03;2.23;;;14.90;77.90;;;;;;2614450;54;20135;-75
2022/07/04 00:36:03;;;;;;;2.80;2.43;;;14.90;81.00;;;;;;2614871;54;20195;-74
2022/07/04 00:41:50;;;;;;;2.93;2.30;;;14.90;84.30;;;;;;2614916;54;20138;-73
2022/07/04 00:47:38;;;;;;;2.87;2.33;;;14.80;91.00;;;;;;2614360;54;20134;-74
2022/07/04 00:53:26;;;;;;;2.70;2.50;;;14.90;92.50;;;;;;2614610;54;20162;-75
2022/07/04 00:59:14;;;;;;;2.73;2.53;;;14.90;95.00;;;;;;2613819;54;20375;-74
2022/07/04 01:05:01;;;;;;;2.63;2.43;;;14.90;96.50;;;;;;2614800;54;20140;-75
2022/07/04 01:10:49;;;;;;;5.80;3.10;;;15.10;96.30;;;;;;2615672;39;20531;-76
2022/07/04 01:16:37;;;;;;;3.00;2.70;;;14.90;99.90;;;;;;2614774;54;20127;-76
2022/07/04 01:19:23;;;;;;;3.83;3.43;;;14.90;99.90;;;;;;2614764;54;20516;-76
2022/07/04 01:21:49;;;;;;;3.23;2.70;;;14.80;99.90;;;;;;2614378;54;20172;-76
2022/07/04 01:27:36;;;;;;;4.80;4.13;;;14.80;99.90;;;;;;2613740;54;20126;-76
2022/07/04 01:33:24;;;;;;;5.33;3.10;;;14.70;99.90;;;;;;2614426;54;20151;-75
2022/07/04 01:39:12;;;;;;;3.30;2.80;;;14.60;99.90;;;;;;2614228;54;20241;-77
2022/07/04 01:45:00;;;;;;;4.23;3.13;;;14.60;99.90;;;;;;2615263;54;20171;-75
2022/07/04 01:50:48;;;;;;;3.00;2.80;;;14.60;99.90;;;;;;2615029;54;20126;-76
2022/07/04 01:56:35;;;;;;;3.50;3.20;;;14.70;99.90;;;;;;2614874;54;20259;-76
2022/07/04 02:02:23;;;;;;;4.40;3.37;;;14.60;99.90;;;;;;2614361;54;20226;-76
2022/07/04 02:08:11;;;;;;;7.30;3.87;;;14.50;99.90;;;;;;2613884;54;20150;-76
2022/07/04 02:13:58;;;;;;;6.67;4.20;;;14.60;99.90;;;;;;2614106;54;20139;-75
2022/07/04 02:30:03;;;;;;;7.47;4.17;;;14.20;99.90;;;;;;2612907;54;20362;-75
2022/07/04 02:35:50;;;;;;;6.40;4.30;;;14.20;99.90;;;;;;2613258;54;20516;-76
2022/07/04 02:41:37;;;;;;;4.60;4.20;;;14.20;99.90;;;;;;2613243;39;20575;-75
2022/07/04 02:47:25;;;;;;;9.83;3.73;;;14.10;99.90;;;;;;2612136;54;20154;-75
2022/07/04 02:53:12;;;;;;;7.37;4.20;;;13.90;99.90;;;;;;2614759;39;20805;-76
2022/07/04 02:59:00;;;;;;;7.53;4.93;;;13.90;99.90;;;;;;2612395;54;20618;-75
2022/07/04 03:04:46;;;;;;;6.60;4.13;;;13.80;99.90;;;;;;2615171;54;20234;-76
2022/07/04 03:10:34;;;;;;;6.00;5.00;;;13.60;99.90;;;;;;2614765;54;20126;-75
2022/07/04 03:16:22;;;;;;;7.20;4.60;;;13.30;99.90;;;;;;2614096;54;20135;-74
2022/07/04 03:22:30;;;;;;;8.50;4.47;;;13.30;99.90;;;;;;2613974;54;20179;-76
2022/07/04 03:28:17;;;;;;;11.93;5.60;;;13.30;99.90;;;;;;2613260;54;20139;-76
2022/07/04 03:34:04;;;;;;;5.30;4.80;;;13.20;99.90;;;;;;2613863;54;20158;-75
2022/07/04 03:39:51;;;;;;;9.10;5.10;;;13.20;99.90;;;;;;2613400;54;20154;-75
2022/07/04 03:45:38;;;;;;;10.00;4.97;;;13.10;99.90;;;;;;2612850;54;20151;-77
2022/07/04 03:51:25;;;;;;;8.53;4.90;;;13.20;99.90;;;;;;2613681;54;20153;-75
2022/07/04 03:57:13;;;;;;;5.93;5.43;;;13.20;99.90;;;;;;2615369;54;20138;-75
2022/07/04 04:03:01;;;;;;;5.53;5.03;;;13.20;99.90;;;;;;2614628;54;20159;-76
2022/07/04 04:08:49;;;;;;;6.40;5.00;;;13.20;99.90;;;;;;2615056;54;20149;-76
2022/07/04 04:14:37;;;;;;;8.60;5.60;;;13.10;99.90;;;;;;2614574;54;20135;-76
2022/07/04 04:30:44;;;;;;;9.13;5.40;;;13.40;99.90;;;;;;2613075;54;20386;-77
2022/07/04 04:39:52;;;;;;;8.53;6.40;;;13.70;99.90;;;;;;2613073;54;20956;-74
2022/07/04 04:45:39;;;;;;;12.10;7.23;;;14.00;99.90;;;;;;2613695;46;20142;-76
2022/07/04 04:51:27;;;;;;;8.13;6.13;;;14.50;99.90;;;;;;2613532;54;20399;-76
2022/07/04 04:57:13;;;;;;;7.63;5.93;;;15.10;99.90;;;;;;2613036;54;20139;-76
2022/07/04 05:03:00;;;;;;;7.70;5.47;;;15.70;99.90;;;;;;2614683;54;20259;-75
2022/07/04 05:08:48;;;;;;;8.80;5.33;;;16.30;99.90;;;;;;2614012;54;20116;-78
2022/07/04 05:14:36;;;;;;;8.27;6.77;;;16.50;99.90;;;;;;2614654;54;20150;-76
2022/07/04 05:30:43;;;;;;;8.33;4.87;;;17.20;99.90;;;;;;2612888;54;20959;-75
2022/07/04 05:36:30;;;;;;;8.03;5.10;;;18.10;99.90;;;;;;2613246;54;20160;-76
2022/07/04 05:42:18;;;;;;;7.23;5.00;;;17.90;99.90;;;;;;2613219;54;20125;-76
2022/07/04 05:48:05;;;;;;;5.43;4.93;;;18.40;99.00;;;;;;2612060;39;20419;-76
2022/07/04 05:53:52;;;;;;;7.23;5.40;;;19.20;87.10;;;;;;2613487;54;20128;-75
2022/07/04 05:59:40;;;;;;;6.20;5.23;;;20.10;65.70;;;;;;2613161;54;20134;-77
2022/07/04 06:05:27;;;;;;;6.67;4.27;;;20.50;53.20;;;;;;2614310;54;20117;-75
2022/07/04 06:11:17;;;;;;;9.20;4.60;;;20.90;42.50;;;;;;2614877;54;20133;-76
2022/07/04 06:17:05;;;;;;;5.87;4.60;;;21.20;33.00;;;;;;2613962;54;20393;-75
2022/07/04 06:26:17;;;;;;;5.40;4.40;;;21.90;19.60;;;;;;2613892;54;20431;-76
2022/07/04 06:32:05;;;;;;;5.20;3.83;;;21.50;20.00;;;;;;2613637;54;20395;-76
2022/07/04 06:37:53;;;;;;;5.83;4.13;;;21.50;14.20;;;;;;2614267;54;20374;-76
2022/07/04 06:43:41;;;;;;;6.80;6.20;;;21.50;13.90;;;;;;2613913;54;20492;-75
2022/07/04 06:49:29;;;;;;;10.23;5.93;;;21.50;12.80;;;;;;2614543;54;20147;-76
2022/07/04 06:55:17;;;;;;;6.17;5.50;;;21.90;9.80;;;;;;2615066;39;20544;-76
2022/07/04 07:01:05;;;;;;;8.20;5.40;;;22.20;6.40;;;;;;2612383;54;20458;-77
2022/07/04 07:06:52;;;;;;;5.53;4.20;;;22.60;4.50;;;;;;2613908;54;20150;-76
2022/07/04 07:12:40;;;;;;;7.17;5.57;;;23.30;1.00;;;;;;2614447;54;20166;-76
2022/07/04 07:18:28;;;;;;;5.83;4.13;;;23.40;1.00;;;;;;2614539;54;20166;-76
2022/07/04 07:24:30;;;;;;;3.50;3.20;;;23.20;1.00;;;;;;2613472;54;20143;-76
2022/07/04 07:27:33;;;;;;;4.33;3.07;;;23.00;1.00;;;;;;2612985;47;20463;-75
2022/07/04 07:29:59;;;;;;;3.40;3.10;;;22.20;1.00;;;;;;2611923;54;20170;-76
2022/07/04 07:35:46;;;;;;;3.93;3.03;;;22.80;1.00;;;;;;2612062;54;20710;-76
2022/07/04 07:41:33;;;;;;;3.23;2.93;;;23.70;1.00;;;;;;2615279;31;20663;-76
2022/07/04 07:47:20;;;;;;;7.93;3.20;;;24.00;1.00;;;;;;2614192;54;20148;-76
2022/07/04 07:53:08;;;;;;;2.80;2.60;;;24.20;1.00;;;;;;2612241;54;20194;-76
2022/07/04 07:58:55;;;;;;;3.03;2.83;;;23.90;1.00;;;;;;2613554;39;20744;-75
2022/07/04 08:04:43;;;;;;;4.87;3.20;;;24.00;1.00;;;;;;2614094;54;20193;-76
2022/07/04 08:10:31;;;;;;;2.90;2.60;;;24.00;1.00;;;;;;2613684;39;20218;-76
2022/07/04 08:16:19;;;;;;;3.17;2.97;;;24.40;1.00;;;;;;2613042;54;20130;-76
2022/07/04 08:32:23;;;;;;;4.60;4.20;;;25.20;1.00;;;;;;2612309;54;20443;-76
2022/07/04 08:38:10;;;;;;;4.23;3.83;;;25.40;1.00;;;;;;2612069;54;20165;-76
2022/07/04 08:43:57;;;;;;;5.93;3.80;;;24.90;1.00;;;;;;2613559;54;20143;-75
2022/07/04 09:02:29;;;;;;;3.97;3.63;;;25.80;1.00;;;;;;2613903;54;20451;-78
2022/07/04 09:08:17;;;;;;;4.27;3.50;;;25.90;1.00;;;;;;2614467;54;20395;-76
2022/07/04 09:14:05;;;;;;;7.80;4.47;;;26.70;1.00;;;;;;2614807;54;20132;-77
2022/07/04 09:20:13;;;;;;;5.87;5.20;;;25.40;1.00;;;;;;2613298;39;20521;-76
2022/07/04 09:26:06;;;;;;;4.43;3.63;;;25.30;1.00;;;;;;2614481;54;20429;-77
2022/07/04 09:31:54;;;;;;;6.13;3.63;;;25.70;1.00;;;;;;2614846;54;20395;-77
2022/07/04 09:37:47;;;;;;;3.90;3.50;;;25.90;1.00;;;;;;2614818;54;20395;-77
2022/07/04 09:43:36;;;;;;;5.33;3.70;;;25.90;1.00;;;;;;2614848;54;20391;-77
2022/07/04 09:49:24;;;;;;;4.63;4.20;;;26.50;1.00;;;;;;2614859;54;20452;-77
2022/07/04 09:55:12;;;;;;;7.20;3.70;;;26.70;1.00;;;;;;2615245;54;20147;-78
2022/07/04 10:01:00;;;;;;;7.97;3.80;;;26.30;1.00;;;;;;2614905;54;20147;-78
2022/07/04 10:06:47;;;;;;;4.00;3.70;;;26.50;1.00;;;;;;2616231;54;20691;-78
2022/07/04 10:12:35;;;;;;;4.40;3.80;;;27.00;1.00;;;;;;2614655;54;20134;-77
2022/07/04 10:18:24;;;;;;;4.37;3.97;;;27.10;1.00;;;;;;2614302;54;20643;-77
2022/07/04 10:24:12;;;;;;;4.90;3.67;;;27.50;1.00;;;;;;2615472;54;20466;-77
2022/07/04 10:30:01;;;;;;;4.20;3.83;;;28.30;1.00;;;;;;2615337;54;20277;-77
2022/07/04 10:35:55;;;;;;;4.03;3.73;;;27.40;1.00;;;;;;2615211;54;20926;-77
2022/07/04 10:48:27;;;;;;;6.30;4.97;;;28.60;1.00;;;;;;2612506;54;20399;-77
2022/07/04 10:57:39;;;;;;;5.07;4.77;;;27.90;1.00;;;;;;2612568;54;20456;-77
2022/07/04 11:03:26;;;;;;;4.90;4.50;;;28.30;1.00;;;;;;2676325;36;20578;-75
2022/07/04 11:09:23;;;;;;;4.57;4.20;;;28.50;1.00;;;;;;2613481;54;20666;-77
2022/07/04 11:15:10;;;;;;;4.23;3.90;;;29.30;1.00;;;;;;2614146;54;20405;-76
2022/07/04 11:21:17;;;;;;;4.30;4.00;;;29.30;1.00;;;;;;2631852;36;20205;-77
2022/07/04 11:27:06;;;;;;;4.40;4.10;;;27.60;1.00;;;;;;2613351;39;21017;-77
2022/07/04 11:36:25;;;;;;;4.50;4.20;;;27.20;1.00;;;;;;2613459;54;20480;-76
2022/07/04 11:45:34;;;;;;;4.50;4.10;;;27.70;1.00;;;;;;2613195;54;20430;-79
2022/07/04 11:51:22;;;;;;;4.33;4.03;;;28.40;1.00;;;;;;2613562;39;20563;-78
2022/07/04 11:57:13;;;;;;;4.60;4.30;;;27.20;1.00;;;;;;2612860;54;20163;-78
2022/07/04 12:03:01;;;;;;;4.37;4.07;;;25.80;1.00;;;;;;2613726;54;20391;-78
2022/07/04 12:08:48;;;;;;;4.37;4.10;;;25.20;1.00;;;;;;2612657;54;20411;-77
2022/07/04 12:14:36;;;;;;;4.53;4.23;;;27.10;1.00;;;;;;2615260;39;20567;-77
2022/07/04 12:20:25;;;;;;;4.20;4.00;;;28.00;1.00;;;;;;2614304;54;20380;-79
2022/07/04 12:36:29;;;;;;;4.33;4.03;;;26.50;1.00;;;;;;2613364;54;20392;-77
2022/07/04 12:42:19;;;;;;;5.03;4.60;;;25.90;1.00;;;;;;2612999;54;20175;-78
2022/07/04 12:54:38;;;;;;;5.93;4.40;;;25.60;1.00;;;;;;2613560;54;20444;-77
2022/07/04 13:00:25;;;;;;;6.37;4.60;;;25.60;1.00;;;;;;2612893;54;20246;-77
2022/07/04 13:06:13;;;;;;;6.70;5.10;;;25.50;1.00;;;;;;2613370;54;20254;-75
2022/07/04 13:18:07;;;;;;;5.83;4.30;;;25.40;1.00;;;;;;2613662;54;20395;-78
2022/07/04 13:23:55;;;;;;;5.00;4.70;;;25.50;1.00;;;;;;2614272;54;20171;-78
2022/07/04 13:39:53;;;;;;;4.70;4.40;;;25.70;1.00;;;;;;2612598;39;20463;-78
2022/07/04 13:45:43;;;;;;;5.07;4.37;;;25.60;1.00;;;;;;2611559;39;20873;-78
2022/07/04 13:51:31;;;;;;;4.40;4.10;;;25.90;1.00;;;;;;2612852;54;20395;-76
2022/07/04 13:57:18;;;;;;;6.30;4.30;;;27.00;1.00;;;;;;2612826;46;20420;-78
2022/07/04 14:03:06;;;;;;;5.00;4.60;;;27.40;1.00;;;;;;2614104;54;20429;-78
2022/07/04 14:08:53;;;;;;;4.47;4.27;;;27.60;1.00;;;;;;2614060;54;20121;-78
2022/07/04 14:14:40;;;;;;;4.50;4.20;;;26.50;1.00;;;;;;2612782;54;20167;-78
2022/07/04 14:20:28;;;;;;;5.77;3.70;;;26.70;1.00;;;;;;2612710;54;20913;-77
2022/07/04 14:26:16;;;;;;;4.50;4.20;;;26.00;1.00;;;;;;2612681;54;20162;-78
2022/07/04 14:35:26;;;;;;;4.30;4.00;;;26.30;1.00;;;;;;2613354;39;20819;-76
2022/07/04 14:41:14;;;;;;;5.57;4.87;;;25.70;1.00;;;;;;2612731;54;20150;-78
2022/07/04 14:47:03;;;;;;;5.47;5.00;;;25.90;1.00;;;;;;2613434;39;20610;-77
2022/07/04 14:52:50;;;;;;;7.67;5.23;;;25.30;1.00;;;;;;2615730;54;20426;-79
2022/07/04 14:58:38;;;;;;;4.63;3.90;;;26.30;1.00;;;;;;2615084;54;20133;-78
2022/07/04 15:04:27;;;;;;;4.83;4.53;;;27.20;1.00;;;;;;2615727;54;20653;-78
2022/07/04 15:10:15;;;;;;;4.40;4.10;;;26.80;1.00;;;;;;2615573;54;20387;-80
2022/07/04 15:16:02;;;;;;;4.60;4.30;;;25.30;1.00;;;;;;2613993;54;20135;-78
2022/07/04 15:27:55;;;;;;;6.23;5.63;;;26.50;1.00;;;;;;2613620;31;20821;-78
2022/07/04 15:33:57;;;;;;;4.27;3.80;;;27.00;1.00;;;;;;2614213;54;20163;-77
2022/07/04 15:39:44;;;;;;;5.17;3.63;;;26.50;1.00;;;;;;2613768;46;20184;-78
2022/07/04 15:45:31;;;;;;;4.50;4.10;;;25.50;1.00;;;;;;2613979;54;20112;-78
2022/07/04 15:51:18;;;;;;;9.70;5.53;;;25.20;1.00;;;;;;2613890;54;20165;-79
2022/07/04 15:57:06;;;;;;;5.20;4.67;;;25.20;1.00;;;;;;2613958;31;20686;-78
2022/07/04 16:02:53;;;;;;;4.67;4.27;;;25.00;1.00;;;;;;2612824;54;20397;-79
2022/07/04 16:08:40;;;;;;;5.07;4.57;;;25.40;1.00;;;;;;2614140;54;20131;-79
2022/07/04 16:14:28;;;;;;;63.33;57.47;;;26.70;1.00;;;;;;2615083;54;20124;-79
2022/07/04 16:20:16;;;;;;;6.40;5.93;;;26.90;1.00;;;;;;2615514;54;20133;-77
2022/07/04 16:26:04;;;;;;;4.77;4.27;;;26.90;1.00;;;;;;2614872;54;20409;-78
2022/07/04 16:42:10;;;;;;;4.77;4.37;;;26.80;1.00;;;;;;2612804;54;20364;-78
2022/07/04 16:47:57;;;;;;;4.90;4.07;;;26.60;1.00;;;;;;2613890;39;20563;-78
2022/07/04 16:57:25;;;;;;;4.80;4.40;;;26.20;1.00;;;;;;2612384;54;20962;-77
2022/07/04 17:03:12;;;;;;;5.27;4.13;;;26.60;1.00;;;;;;2613384;54;20135;-79
2022/07/04 17:09:00;;;;;;;4.73;4.20;;;26.50;1.00;;;;;;2614259;54;20258;-79
2022/07/04 17:14:47;;;;;;;5.70;5.10;;;27.10;1.00;;;;;;2613867;54;20163;-77
2022/07/04 17:20:38;;;;;;;6.10;4.70;;;26.70;1.00;;;;;;2613032;54;20160;-78
2022/07/04 17:26:25;;;;;;;10.43;9.50;;;26.30;1.00;;;;;;2613886;54;20427;-76
2022/07/04 17:35:35;;;;;;;12.20;11.20;;;25.10;1.00;;;;;;2614906;54;20559;-76
2022/07/04 17:47:29;;;;;;;6.67;5.30;;;25.50;1.00;;;;;;2615075;54;20387;-78
2022/07/04 17:53:17;;;;;;;5.27;4.97;;;25.20;1.00;;;;;;2615226;54;20130;-78
2022/07/04 17:59:05;;;;;;;5.50;5.10;;;24.80;1.00;;;;;;2615083;54;20150;-77
2022/07/04 18:04:53;;;;;;;5.50;5.10;;;24.30;1.00;;;;;;2615242;54;20380;-76
2022/07/04 18:10:41;;;;;;;5.97;5.47;;;24.30;1.00;;;;;;2615718;39;20931;-75
2022/07/04 18:16:29;;;;;;;5.60;5.10;;;24.00;1.00;;;;;;2614669;54;20887;-75
2022/07/04 18:22:16;;;;;;;6.13;4.63;;;23.80;1.00;;;;;;2614669;54;20481;-74
2022/07/04 18:28:04;;;;;;;6.80;5.00;;;24.00;1.00;;;;;;2614904;54;20157;-75
2022/07/04 18:34:09;;;;;;;6.57;5.73;;;24.00;1.00;;;;;;2613775;47;21134;-76
2022/07/04 18:39:56;;;;;;;5.43;4.93;;;23.60;1.00;;;;;;2613787;54;20127;-76
2022/07/04 18:45:43;;;;;;;6.30;5.70;;;23.70;1.00;;;;;;2612821;54;20130;-75
2022/07/04 18:51:32;;;;;;;5.90;5.40;;;23.40;1.00;;;;;;2613609;54;20203;-76
2022/07/04 18:57:19;;;;;;;5.43;4.93;;;23.30;1.00;;;;;;2613861;54;20453;-76
2022/07/04 19:03:08;;;;;;;7.00;5.40;;;23.00;1.00;;;;;;2613689;54;20150;-76
2022/07/04 19:08:55;;;;;;;5.50;5.00;;;23.00;1.00;;;;;;2613973;54;20503;-76
2022/07/04 19:14:42;;;;;;;5.50;4.40;;;22.80;1.00;;;;;;2613788;54;20288;-75
2022/07/04 19:23:51;;;;;;;5.10;4.50;;;22.40;1.00;;;;;;2613235;54;20387;-76
2022/07/04 19:29:38;;;;;;;6.23;5.63;;;22.30;1.00;;;;;;2613935;54;20143;-75
2022/07/04 19:35:25;;;;;;;7.00;4.80;;;22.20;1.00;;;;;;2614450;54;20154;-76
2022/07/04 19:44:53;;;;;;;4.53;4.13;;;21.80;1.00;;;;;;2614345;54;20395;-77
2022/07/04 19:50:41;;;;;;;6.10;4.83;;;21.50;1.00;;;;;;2613716;54;20393;-76
2022/07/04 19:56:29;;;;;;;5.27;4.87;;;21.40;1.00;;;;;;2612911;54;20432;-76
2022/07/04 20:02:16;;;;;;;5.33;4.60;;;21.10;1.00;;;;;;2613872;54;20261;-77
2022/07/04 20:08:04;;;;;;;5.33;4.93;;;21.10;1.00;;;;;;2613476;54;20407;-75
2022/07/04 20:13:51;;;;;;;7.00;4.60;;;21.00;1.00;;;;;;2613076;54;20459;-76
2022/07/04 20:19:39;;;;;;;5.43;4.37;;;20.70;1.60;;;;;;2615396;54;20190;-74
2022/07/04 20:25:27;;;;;;;7.83;4.20;;;20.50;4.00;;;;;;2615195;54;20135;-76
2022/07/04 20:31:14;;;;;;;4.60;4.20;;;20.50;4.00;;;;;;2615842;54;20123;-76
2022/07/04 20:37:17;;;;;;;6.23;5.23;;;20.40;5.70;;;;;;2614310;54;20149;-75
2022/07/04 20:46:30;;;;;;;4.30;4.00;;;19.80;10.40;;;;;;2613854;54;20395;-75
2022/07/04 20:52:18;;;;;;;7.77;4.67;;;19.90;11.20;;;;;;2614365;54;20153;-76
2022/07/04 20:58:05;;;;;;;4.87;4.40;;;19.70;13.40;;;;;;2614228;54;20130;-75
2022/07/04 21:03:52;;;;;;;4.30;4.00;;;19.70;14.30;;;;;;2614229;54;20219;-76
2022/07/04 21:09:39;;;;;;;7.13;4.07;;;19.50;15.90;;;;;;2613001;54;20186;-75
2022/07/04 21:15:28;;;;;;;5.83;4.17;;;19.10;20.10;;;;;;2613085;54;20157;-76
2022/07/04 21:21:15;;;;;;;4.57;4.20;;;19.20;19.80;;;;;;2614990;54;20414;-75
2022/07/04 21:27:03;;;;;;;6.93;4.93;;;19.00;20.30;;;;;;2615130;46;20411;-74
2022/07/04 21:32:51;;;;;;;5.80;4.57;;;18.90;25.70;;;;;;2615027;54;21059;-75
2022/07/04 21:38:39;;;;;;;4.90;4.47;;;18.80;25.00;;;;;;2615299;54;20130;-75
2022/07/04 21:44:27;;;;;;;5.30;4.60;;;18.70;27.60;;;;;;2614640;54;20290;-76
2022/07/04 21:50:14;;;;;;;6.47;5.47;;;18.70;30.00;;;;;;2615924;39;21019;-74
2022/07/04 21:56:02;;;;;;;6.33;4.80;;;18.50;35.80;;;;;;2614220;54;20130;-74
2022/07/04 22:01:50;;;;;;;6.23;4.10;;;18.40;35.20;;;;;;2615035;54;20137;-74
2022/07/04 22:07:38;;;;;;;8.10;4.50;;;18.20;31.60;;;;;;2615270;54;20182;-74
2022/07/04 22:13:25;;;;;;;4.93;4.40;;;18.20;29.90;;;;;;2614993;54;20410;-73
2022/07/04 22:19:13;;;;;;;4.50;4.07;;;18.10;33.70;;;;;;2615097;39;20889;-74
2022/07/04 22:25:01;;;;;;;5.93;3.80;;;17.90;39.40;;;;;;2614960;54;20133;-75
2022/07/04 22:34:13;;;;;;;4.97;3.43;;;17.80;46.00;;;;;;2613505;54;20451;-73
2022/07/04 22:36:39;;;;;;;5.33;4.50;;;17.70;46.50;;;;;;2614076;47;20410;-73
2022/07/04 22:42:26;;;;;;;4.93;4.00;;;17.60;45.70;;;;;;2615288;39;20526;-74
2022/07/04 22:48:15;;;;;;;4.87;4.47;;;17.50;48.40;;;;;;2614950;54;20153;-74
2022/07/04 23:00:12;;;;;;;4.70;4.13;;;17.30;55.40;;;;;;2614430;54;20366;-75
2022/07/04 23:06:00;;;;;;;4.10;3.70;;;17.40;54.10;;;;;;2614533;46;20400;-74
2022/07/04 23:11:48;;;;;;;5.00;4.07;;;17.40;54.50;;;;;;2615657;54;20145;-74
2022/07/04 23:17:35;;;;;;;3.90;3.60;;;17.30;56.40;;;;;;2615318;39;20542;-73
2022/07/04 23:23:23;;;;;;;5.17;4.53;;;17.20;59.70;;;;;;2615365;54;20131;-74
2022/07/04 23:29:11;;;;;;;6.63;3.60;;;17.10;63.40;;;;;;2615644;54;20174;-73
2022/07/04 23:45:09;;;;;;;3.87;3.53;;;16.80;77.00;;;;;;2614124;54;20369;-75
2022/07/04 23:50:56;;;;;;;5.93;3.80;;;16.70;85.40;;;;;;2613931;54;20133;-74
2022/07/04 23:56:43;;;;;;;6.77;3.80;;;16.60;91.90;;;;;;2613826;54;20195;-74
